• Join FlightAware (Why Join?)
  • Login
  • US Flag 
08:19AM EDT


 

Airport Tracker/Info


-or-


 

Live Flight TrackerFlight Track Log ✈ ASQ5958 ✈ 21-Aug-2013 ✈ KORD - KBNA

Flight Track Log - Related Links

Times and Time Zones

All times are in EDT time to prevent confusion due to time zone crossing. See the ASQ5958 flight status page for this flight to view local times or setup timezone preferences in your user account.

Time Position Orientation Groundspeed Altitude Reporting Facility
EDT Latitude Longitude Course Direction KTS MPH feet Rate Location/Type
02:17PM 41.9167 -87.9000 176° South 167 192 3,600  Level Chicago TRACON
02:18PM 41.8500 -87.9000 180° South 240 276 4,900 1,560 Climbing Chicago TRACON
02:19PM 41.8039 -87.8997 180° South 240 276 6,400 1,800 Climbing Chicago Center
02:20PM 41.7281 -87.8950 177° South 269 310 8,200 1,740 Climbing Chicago Center
02:21PM 41.6478 -87.8911 178° South 287 330 10,100 1,320 Climbing Chicago Center
02:22PM 41.4923 -87.7957 176° South  Level Estimated
02:22PM 41.5611 -87.8853 177° South 310 357 11,000  Level Chicago Center
02:23PM 41.4406 -87.8789 178° South 351 404 12,100 1,140 Climbing Chicago Center
02:24PM 41.3358 -87.8842 182° South 368 423 13,400 1,320 Climbing Chicago Center
02:25PM 41.2325 -87.8931 184° South 370 426 14,900 1,140 Climbing Chicago Center
02:26PM 41.1292 -87.8889 178° South 371 427 15,800 840 Climbing Chicago Center
02:27PM 41.0231 -87.8861 179° South 378 435 16,700 960 Climbing Chicago Center
02:28PM 40.9144 -87.8817 178° South 389 448 17,800 840 Climbing Chicago Center
02:29PM 40.8058 -87.8783 179° South 392 451 18,500 840 Climbing Chicago Center
02:30PM 40.6728 -87.8742 179° South 397 457 19,600 960 Climbing Chicago Center
02:31PM 40.5608 -87.8708 179° South 404 465 20,600 900 Climbing Chicago Center
02:32PM 40.4475 -87.8675 179° South 408 470 21,500 900 Climbing Chicago Center
02:33PM 40.3322 -87.8633 178° South 415 478 22,500 900 Climbing Chicago Center
02:34PM 40.2167 -87.8592 178° South 417 480 23,400 960 Climbing Chicago Center
02:35PM 40.0836 -87.8475 176° South 425 489 24,500 960 Climbing Chicago Center
02:36PM 39.9681 -87.8200 170° South 427 491 25,400 900 Climbing Chicago Center
02:37PM 39.8528 -87.7956 171° South 425 489 26,400 960 Climbing Chicago Center
02:38PM 39.7356 -87.7697 170° South 429 494 27,500 1,200 Climbing Chicago Center
02:39PM 39.5983 -87.7406 171° South 422 486 28,900 1,140 Climbing Chicago Center
02:40PM 39.4844 -87.7150 170° South 418 481 29,900 960 Climbing Chicago Center
02:41PM 39.3689 -87.6897 170° South 422 486 30,900 900 Climbing Chicago Center
02:42PM 39.2525 -87.6619 170° South 429 494 31,800 900 Climbing Chicago Center
02:43PM 39.1356 -87.6367 170° South 428 493 32,800 540 Climbing Chicago Center
02:44PM 38.9919 -87.6078 171° South 437 503 33,000 60 Climbing Chicago Center
02:45PM 38.8625 -87.5783 170° South 468 539 33,000  Level Chicago Center
02:47PM 38.6694 -87.5356 170° South 478 550 33,000  Level Indianapolis Center
02:48PM 38.5381 -87.5053 170° South 482 555 33,000  Level Indianapolis Center
02:49PM 38.4047 -87.4783 171° South 486 559 33,000  Level Indianapolis Center
02:50PM 38.2728 -87.4497 170° South 486 559 33,000  Level Indianapolis Center
02:51PM 38.1392 -87.4217 171° South 491 565 33,000 -60 Level Indianapolis Center
02:52PM 37.9828 -87.3881 170° South 480 552 32,900 -1,020 Descending Indianapolis Center
02:53PM 37.8553 -87.3603 170° South 467 537 31,000 -1,800 Descending Indianapolis Center
02:54PM 37.7461 -87.3256 166° South 438 504 29,200 -1,860 Descending Indianapolis Center
02:55PM 37.6314 -87.2722 160° South 435 501 27,200 -2,100 Descending Indianapolis Center
02:56PM 37.4928 -87.2217 164° South 440 506 24,900 -1,920 Descending Indianapolis Center
02:57PM 37.3744 -87.1797 164° South 438 504 23,300 -960 Descending Indianapolis Center
02:58PM 37.2625 -87.1408 165° South 419 482 23,000 -600 Descending Indianapolis Center
02:59PM 37.1503 -87.1036 165° South 413 475 22,100 -1,200 Descending Indianapolis Center
03:00PM 37.0319 -87.0619 164° South 423 487 20,600 -1,620 Descending Memphis Center
03:01PM 36.9203 -87.0250 165° South 423 487 18,900 -1,680 Descending Memphis Center
03:02PM 36.8069 -86.9856 164° South 417 480 17,300 -1,740 Descending Memphis Center
03:03PM 36.7014 -86.9383 160° South 406 467 15,500 -1,800 Descending Memphis Center
03:04PM 36.5967 -86.9247 174° South 369 425 13,700 -1,800 Descending Memphis Center
03:05PM 36.5056 -86.9389 187° South 342 394 12,000 -1,440 Descending Memphis Center
03:06PM 36.4314 -86.9756 202° Southwest 311 358 10,900 -1,620 Descending Memphis Center
03:07PM 36.3831 -87.0394 227° Southwest 252 290 8,800 -2,400 Descending Memphis Center
03:08PM 36.3347 -87.1006 226° Southwest 257 296 6,100 -2,400 Descending Memphis Center
03:09PM 36.2792 -87.1311 204° Southwest 226 260 4,000 -1,080 Descending Memphis Center
03:10PM 36.2728 -87.0517 96° East 131 151 4,000 -180 Level Memphis Center
03:11PM 36.2667 -86.9747 96° East 185 213 3,700 -300 Descending Memphis Center
03:12PM 36.2336 -86.9067 121° Southeast 208 239 3,500 -480 Descending Memphis Center
03:13PM 36.2086 -86.8356 114° Southeast 220 253 2,800 -780 Descending Memphis Center
03:14PM 36.1964 -86.7744 104° East 199 229 2,000 -720 Descending Memphis Center
03:15PM 36.1725 -86.7369 128° Southeast 156 180 1,400 -600 Descending Memphis Center